Woodworth, Louisiana
Current Conditions -  °F | °C
As of 5:53 AM on Thursday 27 Nov 2014 (Local Time) from KAEX Reporting Station
Clear Clear  
Wind Chill: 36°   Ceiling: Unl
Heat Index: 40°   Visibility: 10mi
Dew Point: 33°   Wind: 6mph
Humidity: 77%   Direction: 320°NW
Pressure: 30.42"   Gusts: NA
Location:  31.15°N, 92.5°W
Report Text: KAEX 271153Z AUTO 32005KT 10SM CLR 04/01 A3042 RMK AO2 SLP305 T00440006 10089 20044 53026
Loading
Personal Weather Stations






























Interactive Weather Map New forecast layout! Learn more

10-Day Weather Forecast

Advertisements
Track Severe Weather on mobile